Time;durP1;ratioP1;P1;durP2;ratioP2;P2;SDS_P1;SDS_P2;PMS_P1;PMS_P2;Temp;Humidity;BMP_temperature;BMP_pressure;BME280_temperature;BME280_humidity;BME280_pressure;Samples;Min_cycle;Max_cycle;Signal;HPM_P1;HPM_P2
2024/02/20 00:00:18;;;;;;;0.17;0.17;;;8.40;99.90;;;;;;5063389;28;20051;-74
2024/02/20 00:02:44;;;;;;;0.30;0.30;;;8.40;99.90;;;;;;5063880;28;20052;-72
2024/02/20 00:05:11;;;;;;;0.30;0.30;;;8.40;99.90;;;;;;5061413;28;20032;-73
2024/02/20 00:07:40;;;;;;;0.10;0.10;;;8.40;99.90;;;;;;5060168;28;20036;-72
2024/02/20 00:10:08;;;;;;;0.32;0.32;;;8.40;99.90;;;;;;5063358;28;20029;-72
2024/02/20 00:12:38;;;;;;;0.10;0.10;;;8.30;99.90;;;;;;5045597;28;20389;-72
2024/02/20 00:15:06;;;;;;;0.33;0.33;;;8.30;99.90;;;;;;5064578;28;20037;-72
2024/02/20 00:17:37;;;;;;;0.10;0.10;;;8.20;99.90;;;;;;5045782;28;20043;-72
2024/02/20 00:20:05;;;;;;;0.10;0.10;;;8.10;99.90;;;;;;5062807;28;20032;-72
2024/02/20 00:22:32;;;;;;;0.10;0.10;;;8.10;99.90;;;;;;5060298;28;20033;-73
2024/02/20 00:24:58;;;;;;;0.10;0.10;;;8.10;99.90;;;;;;5040192;28;20043;-73
2024/02/20 00:27:25;;;;;;;0.57;0.50;;;8.10;99.90;;;;;;5062890;28;20033;-72
2024/02/20 00:29:53;;;;;;;0.10;0.10;;;8.00;99.90;;;;;;5053899;28;20047;-73
2024/02/20 00:32:22;;;;;;;0.10;0.10;;;7.90;99.90;;;;;;5063088;28;20025;-75
2024/02/20 00:34:49;;;;;;;0.85;0.52;;;7.90;99.90;;;;;;5065155;28;20041;-73
2024/02/20 00:37:15;;;;;;;0.38;0.32;;;7.80;99.90;;;;;;5064529;28;20493;-72
2024/02/20 00:39:42;;;;;;;0.10;0.10;;;7.80;99.90;;;;;;5059954;28;20032;-73
2024/02/20 00:42:11;;;;;;;0.10;0.10;;;7.70;99.90;;;;;;5068266;28;20402;-73
2024/02/20 00:44:37;;;;;;;0.55;0.55;;;7.70;99.90;;;;;;5062228;28;20390;-73
2024/02/20 00:47:05;;;;;;;0.30;0.30;;;7.70;99.90;;;;;;5064392;28;20040;-73
2024/02/20 00:49:32;;;;;;;1.08;0.30;;;7.70;99.90;;;;;;5065233;28;20032;-73
2024/02/20 00:51:58;;;;;;;0.35;0.35;;;7.70;99.90;;;;;;5059762;28;20041;-73
2024/02/20 00:54:24;;;;;;;0.22;0.22;;;7.70;99.90;;;;;;5058440;28;20776;-73
2024/02/20 00:56:50;;;;;;;0.20;0.20;;;7.70;99.90;;;;;;5064315;28;20025;-73
2024/02/20 00:59:16;;;;;;;4.57;1.75;;;7.60;99.90;;;;;;5063362;28;20453;-72
2024/02/20 01:01:45;;;;;;;0.40;0.40;;;7.60;99.90;;;;;;5062864;28;20029;-72
2024/02/20 01:04:13;;;;;;;0.10;0.10;;;7.50;99.90;;;;;;5041114;28;20028;-72
2024/02/20 01:06:41;;;;;;;0.22;0.22;;;7.40;99.90;;;;;;5039848;28;20041;-72
2024/02/20 01:09:07;;;;;;;7.05;1.27;;;7.30;99.90;;;;;;5064226;28;20370;-72
2024/02/20 01:11:33;;;;;;;0.63;0.63;;;7.20;99.90;;;;;;5061392;28;20087;-73
2024/02/20 01:14:00;;;;;;;1.52;0.98;;;7.20;99.90;;;;;;5057992;28;20043;-73
2024/02/20 01:16:28;;;;;;;0.10;0.10;;;7.20;99.90;;;;;;5063665;28;20029;-73
2024/02/20 01:18:54;;;;;;;0.10;0.10;;;7.20;99.90;;;;;;5063296;28;20048;-72
2024/02/20 01:21:20;;;;;;;0.65;0.65;;;7.20;99.90;;;;;;5064699;28;20466;-74
2024/02/20 01:23:46;;;;;;;0.20;0.20;;;7.10;99.90;;;;;;5058914;28;20040;-73
2024/02/20 01:26:14;;;;;;;0.10;0.10;;;7.20;99.90;;;;;;5056677;28;20033;-75
2024/02/20 01:28:41;;;;;;;3.20;1.27;;;7.10;99.90;;;;;;5063419;28;20036;-72
2024/02/20 01:31:13;;;;;;;0.90;0.90;;;6.90;99.90;;;;;;5063705;28;20052;-75
2024/02/20 01:33:40;;;;;;;0.10;0.10;;;6.90;99.90;;;;;;5058323;28;20036;-73
2024/02/20 01:36:07;;;;;;;0.15;0.15;;;6.90;99.90;;;;;;5033672;28;20029;-73
2024/02/20 01:38:33;;;;;;;0.45;0.45;;;6.80;99.90;;;;;;5064414;28;20043;-73
2024/02/20 01:40:59;;;;;;;0.98;0.30;;;6.70;99.90;;;;;;5064201;28;20465;-72
2024/02/20 01:43:26;;;;;;;2.47;1.00;;;6.70;99.90;;;;;;5060932;28;20385;-77
2024/02/20 01:45:52;;;;;;;0.63;0.50;;;6.60;99.90;;;;;;5057842;28;20085;-73
2024/02/20 01:48:18;;;;;;;0.10;0.10;;;6.50;99.90;;;;;;5062645;28;20028;-72
2024/02/20 01:50:44;;;;;;;0.10;0.10;;;6.40;99.90;;;;;;5063538;28;20112;-72
2024/02/20 01:53:10;;;;;;;0.10;0.10;;;6.30;99.90;;;;;;5064777;28;20032;-75
2024/02/20 01:55:37;;;;;;;0.10;0.10;;;6.20;99.90;;;;;;5056844;28;20037;-73
2024/02/20 01:58:04;;;;;;;0.50;0.50;;;6.20;99.90;;;;;;5062040;28;20354;-73
2024/02/20 02:00:30;;;;;;;0.15;0.15;;;6.20;99.90;;;;;;5061237;28;20373;-75
2024/02/20 02:02:56;;;;;;;2.58;1.42;;;6.10;99.90;;;;;;5065077;28;20372;-73
2024/02/20 02:05:23;;;;;;;1.30;0.57;;;6.20;99.90;;;;;;5055796;28;20028;-75
2024/02/20 02:07:49;;;;;;;0.35;0.35;;;6.20;99.90;;;;;;5056244;28;20060;-73
2024/02/20 02:10:15;;;;;;;1.35;0.45;;;6.20;99.90;;;;;;5062566;28;20036;-73
2024/02/20 02:12:42;;;;;;;0.30;0.30;;;6.20;99.90;;;;;;5064858;28;20032;-73
2024/02/20 02:15:08;;;;;;;0.68;0.68;;;6.20;99.90;;;;;;5059517;28;20040;-72
2024/02/20 02:17:34;;;;;;;0.80;0.80;;;6.20;99.90;;;;;;5040971;28;20041;-73
2024/02/20 02:20:01;;;;;;;0.30;0.30;;;6.30;99.90;;;;;;5062213;28;20370;-73
2024/02/20 02:22:27;;;;;;;0.30;0.30;;;6.30;99.90;;;;;;5064531;28;20041;-75
2024/02/20 02:24:53;;;;;;;0.40;0.40;;;6.30;99.90;;;;;;5058748;28;20033;-73
2024/02/20 02:27:19;;;;;;;0.10;0.10;;;6.30;99.90;;;;;;5049799;28;20036;-74
2024/02/20 02:29:48;;;;;;;0.35;0.35;;;6.40;99.90;;;;;;5045346;28;20052;-73
2024/02/20 02:32:14;;;;;;;0.10;0.10;;;6.50;99.90;;;;;;5053816;28;20033;-72
2024/02/20 02:34:40;;;;;;;0.80;0.80;;;6.50;99.90;;;;;;5061800;28;20040;-72
2024/02/20 02:37:06;;;;;;;0.50;0.50;;;6.60;99.90;;;;;;5063303;28;20474;-72
2024/02/20 02:39:32;;;;;;;0.75;0.45;;;6.70;99.90;;;;;;5038171;28;20036;-72
2024/02/20 02:41:58;;;;;;;0.32;0.32;;;6.90;94.40;;;;;;5056413;28;20041;-72
2024/02/20 02:44:25;;;;;;;0.45;0.45;;;6.90;59.70;;;;;;5064226;28;20041;-75
2024/02/20 02:46:51;;;;;;;0.35;0.35;;;7.00;37.40;;;;;;5047977;28;20033;-72
2024/02/20 02:49:17;;;;;;;0.57;0.40;;;7.00;47.30;;;;;;5058098;28;20033;-72
2024/02/20 02:51:43;;;;;;;0.17;0.17;;;7.00;31.20;;;;;;5059839;28;20033;-73
2024/02/20 02:54:09;;;;;;;0.10;0.10;;;6.90;31.20;;;;;;5063685;28;20029;-73
2024/02/20 02:56:36;;;;;;;0.22;0.22;;;6.90;24.40;;;;;;5063583;28;20036;-72
2024/02/20 02:59:04;;;;;;;0.30;0.30;;;6.80;34.70;;;;;;5063765;28;20358;-72
2024/02/20 03:01:30;;;;;;;0.35;0.35;;;6.80;44.40;;;;;;5057469;28;20032;-73
2024/02/20 03:03:58;;;;;;;0.10;0.10;;;6.60;55.50;;;;;;5066773;28;20040;-73
2024/02/20 03:06:24;;;;;;;0.93;0.93;;;6.50;63.10;;;;;;5066676;28;20036;-74
2024/02/20 03:08:50;;;;;;;3.92;1.45;;;6.50;61.60;;;;;;5065893;28;20446;-72
2024/02/20 03:11:19;;;;;;;0.85;0.82;;;6.50;64.90;;;;;;5061454;28;20024;-72
2024/02/20 03:13:45;;;;;;;1.13;0.43;;;6.50;70.80;;;;;;5061563;28;20036;-72
2024/02/20 03:16:11;;;;;;;1.35;0.90;;;6.50;93.30;;;;;;5066085;28;20032;-72
2024/02/20 03:18:38;;;;;;;0.20;0.20;;;6.50;99.90;;;;;;5065485;28;20044;-72
2024/02/20 03:21:06;;;;;;;0.85;0.75;;;6.40;99.90;;;;;;5060784;28;20051;-73
2024/02/20 03:23:32;;;;;;;0.75;0.75;;;6.40;99.90;;;;;;5067317;28;20037;-73
2024/02/20 03:25:59;;;;;;;1.10;1.10;;;6.30;99.90;;;;;;5066364;28;20029;-72
2024/02/20 03:28:25;;;;;;;6.70;1.17;;;6.30;99.90;;;;;;5067622;28;20028;-75
2024/02/20 03:30:52;;;;;;;2.22;1.20;;;6.30;99.90;;;;;;5060601;28;20040;-72
2024/02/20 03:33:19;;;;;;;0.20;0.20;;;6.30;99.90;;;;;;5059331;28;20412;-73
2024/02/20 03:35:46;;;;;;;0.40;0.40;;;6.30;99.90;;;;;;5065124;28;20036;-73
2024/02/20 03:38:13;;;;;;;2.05;0.75;;;6.30;99.90;;;;;;5066108;28;20025;-73
2024/02/20 03:40:40;;;;;;;1.52;1.02;;;6.40;99.90;;;;;;5061520;28;20056;-73
2024/02/20 03:43:06;;;;;;;0.15;0.15;;;6.40;99.90;;;;;;5062774;28;20037;-73
2024/02/20 03:45:32;;;;;;;1.95;0.82;;;6.50;99.90;;;;;;5063385;28;20039;-74
2024/02/20 03:47:58;;;;;;;0.15;0.15;;;6.60;88.30;;;;;;5065393;28;20044;-73
2024/02/20 03:50:24;;;;;;;0.80;0.80;;;6.70;94.60;;;;;;5065494;28;20025;-73
2024/02/20 03:52:51;;;;;;;0.85;0.85;;;6.70;79.10;;;;;;5059658;28;20056;-73
2024/02/20 03:55:18;;;;;;;0.30;0.30;;;6.70;80.90;;;;;;5059704;28;20037;-73
2024/02/20 03:57:44;;;;;;;19.17;0.80;;;6.80;57.60;;;;;;5063862;28;20040;-73
2024/02/20 04:00:14;;;;;;;2.28;0.73;;;6.70;65.10;;;;;;5066670;28;20048;-74
2024/02/20 04:02:42;;;;;;;0.35;0.35;;;6.80;35.70;;;;;;5062172;28;20358;-73
2024/02/20 04:05:11;;;;;;;0.70;0.57;;;6.80;39.80;;;;;;5059558;28;20040;-73
2024/02/20 04:07:41;;;;;;;6.53;2.47;;;6.80;40.70;;;;;;5062378;28;20058;-73
2024/02/20 04:10:09;;;;;;;0.38;0.38;;;6.80;33.50;;;;;;5065151;28;20036;-73
2024/02/20 04:12:36;;;;;;;1.08;0.55;;;6.80;29.20;;;;;;5063080;28;20048;-73
2024/02/20 04:15:07;;;;;;;1.38;1.10;;;6.90;30.50;;;;;;5062344;28;20056;-73
2024/02/20 04:17:34;;;;;;;0.10;0.10;;;6.80;56.60;;;;;;5063708;28;20036;-73
2024/02/20 04:20:03;;;;;;;0.75;0.70;;;6.80;56.90;;;;;;5063344;28;20381;-73
2024/02/20 04:22:32;;;;;;;0.85;0.70;;;6.80;56.50;;;;;;5065351;28;20032;-75
2024/02/20 04:25:02;;;;;;;0.10;0.10;;;6.90;36.00;;;;;;5060151;28;20077;-73
2024/02/20 04:27:29;;;;;;;0.10;0.10;;;7.00;1.00;;;;;;5058388;28;20029;-75
2024/02/20 04:29:55;;;;;;;0.75;0.75;;;7.00;3.10;;;;;;5063062;28;20052;-73
2024/02/20 04:32:22;;;;;;;9.13;0.95;;;7.10;1.00;;;;;;5065770;28;20040;-73
2024/02/20 04:34:48;;;;;;;0.70;0.43;;;7.10;1.00;;;;;;5060712;28;20036;-72
2024/02/20 04:37:16;;;;;;;6.43;1.77;;;7.10;1.00;;;;;;5062226;28;20032;-72
2024/02/20 04:39:46;;;;;;;0.25;0.25;;;7.10;1.00;;;;;;5063020;28;20040;-73
2024/02/20 04:42:12;;;;;;;2.75;0.68;;;7.10;1.00;;;;;;5061645;28;20048;-73
2024/02/20 04:44:38;;;;;;;0.10;0.10;;;7.10;1.00;;;;;;5062742;28;20036;-73
2024/02/20 04:47:06;;;;;;;0.25;0.25;;;7.20;1.00;;;;;;5055491;28;20031;-74
2024/02/20 04:49:32;;;;;;;1.25;0.90;;;7.20;1.00;;;;;;5061650;28;20036;-75
2024/02/20 04:51:59;;;;;;;0.28;0.28;;;7.20;1.00;;;;;;5057649;28;20037;-73
2024/02/20 04:54:26;;;;;;;0.15;0.15;;;7.20;1.00;;;;;;5067175;28;20051;-73
2024/02/20 04:56:52;;;;;;;1.17;1.08;;;7.20;1.00;;;;;;5062681;28;20056;-73
2024/02/20 04:59:21;;;;;;;0.82;0.82;;;7.20;1.00;;;;;;5063992;28;20032;-73
2024/02/20 05:01:48;;;;;;;0.57;0.20;;;7.20;1.00;;;;;;5059232;28;20036;-73
2024/02/20 05:04:14;;;;;;;0.90;0.73;;;7.20;1.00;;;;;;5044690;28;20379;-73
2024/02/20 05:06:40;;;;;;;11.43;1.55;;;7.20;1.00;;;;;;5059123;28;20028;-73
2024/02/20 05:09:07;;;;;;;0.85;0.85;;;7.20;1.00;;;;;;5057153;28;20048;-73
2024/02/20 05:11:33;;;;;;;0.20;0.20;;;7.20;1.00;;;;;;5049078;28;20025;-74
2024/02/20 05:13:59;;;;;;;0.75;0.75;;;7.20;1.00;;;;;;5058408;28;20115;-72
2024/02/20 05:16:25;;;;;;;0.52;0.52;;;7.20;1.00;;;;;;5060737;28;20036;-73
2024/02/20 05:18:51;;;;;;;0.32;0.32;;;7.20;1.00;;;;;;5061347;28;20017;-72
2024/02/20 05:21:17;;;;;;;0.10;0.10;;;7.10;1.00;;;;;;5056973;28;20032;-73
2024/02/20 05:23:43;;;;;;;0.57;0.57;;;7.00;1.00;;;;;;5046653;28;20390;-73
2024/02/20 05:26:10;;;;;;;2.15;1.92;;;7.00;1.00;;;;;;5036330;28;20362;-73
2024/02/20 05:28:36;;;;;;;1.75;1.65;;;6.90;1.00;;;;;;5047656;28;20493;-75
2024/02/20 05:31:28;;;;;;;1.17;0.90;;;6.90;1.00;;;;;;5045910;28;20040;-74
2024/02/20 05:33:58;;;;;;;0.32;0.32;;;7.00;1.00;;;;;;5059517;28;20060;-73
2024/02/20 05:36:31;;;;;;;1.85;1.75;;;6.90;1.00;;;;;;5062324;28;20044;-74
2024/02/20 05:39:01;;;;;;;1.48;1.38;;;6.90;1.00;;;;;;5064096;28;20028;-74
2024/02/20 05:41:28;;;;;;;0.43;0.40;;;6.90;1.00;;;;;;5058194;28;20048;-74
2024/02/20 05:43:59;;;;;;;0.30;0.30;;;6.90;1.00;;;;;;5061921;28;20032;-74
2024/02/20 05:46:29;;;;;;;0.32;0.32;;;7.00;1.00;;;;;;5064069;28;20489;-74
2024/02/20 05:48:57;;;;;;;0.20;0.20;;;7.00;1.00;;;;;;5062362;28;20035;-74
2024/02/20 05:51:23;;;;;;;0.98;0.28;;;6.90;1.00;;;;;;5057734;28;20485;-74
2024/02/20 05:53:50;;;;;;;1.02;0.93;;;6.90;1.00;;;;;;5062131;28;20397;-74
2024/02/20 05:56:17;;;;;;;0.20;0.20;;;6.80;1.00;;;;;;5062014;28;20039;-74
2024/02/20 05:58:43;;;;;;;0.40;0.40;;;6.80;1.00;;;;;;5065666;28;20044;-74
2024/02/20 06:01:09;;;;;;;0.98;0.73;;;6.70;1.00;;;;;;5059280;28;20032;-74
2024/02/20 06:03:36;;;;;;;0.98;0.55;;;6.70;1.00;;;;;;5059664;28;20044;-76
2024/02/20 06:06:06;;;;;;;2.97;1.85;;;6.60;1.00;;;;;;5062552;28;20032;-74
2024/02/20 06:08:36;;;;;;;0.57;0.57;;;6.50;1.00;;;;;;5064937;28;20025;-75
2024/02/20 06:11:02;;;;;;;0.55;0.55;;;6.40;1.00;;;;;;5057135;28;20040;-74
2024/02/20 06:13:28;;;;;;;4.85;1.20;;;6.40;1.00;;;;;;5063905;28;20473;-74
2024/02/20 06:15:54;;;;;;;0.15;0.15;;;6.40;1.00;;;;;;5061923;28;20032;-75
2024/02/20 06:18:20;;;;;;;2.80;1.25;;;6.30;1.00;;;;;;5063082;28;20354;-74
2024/02/20 06:20:47;;;;;;;7.13;2.60;;;6.40;1.00;;;;;;5062996;28;20028;-75
2024/02/20 06:23:13;;;;;;;0.45;0.45;;;6.30;1.00;;;;;;5064279;28;20044;-74
2024/02/20 06:25:43;;;;;;;6.47;1.40;;;6.30;1.00;;;;;;5064915;28;20377;-73
2024/02/20 06:28:12;;;;;;;0.20;0.20;;;6.30;1.00;;;;;;5064836;28;20063;-73
2024/02/20 06:30:38;;;;;;;0.25;0.25;;;6.30;1.00;;;;;;5062966;28;20032;-74
2024/02/20 06:33:04;;;;;;;0.10;0.10;;;6.30;1.00;;;;;;5067848;28;20036;-74
2024/02/20 06:35:31;;;;;;;0.10;0.10;;;6.30;1.00;;;;;;5054085;28;20048;-74
2024/02/20 06:37:57;;;;;;;0.35;0.35;;;6.30;1.00;;;;;;5065803;28;20055;-73
2024/02/20 06:40:23;;;;;;;3.75;1.10;;;6.30;1.00;;;;;;5065990;28;20044;-73
2024/02/20 06:42:50;;;;;;;1.05;1.05;;;6.30;1.00;;;;;;5045764;28;20045;-74
2024/02/20 06:45:16;;;;;;;0.30;0.30;;;6.20;1.00;;;;;;5071003;28;20070;-74
2024/02/20 06:47:42;;;;;;;0.32;0.32;;;6.20;7.30;;;;;;5068048;28;20029;-74
2024/02/20 06:50:12;;;;;;;19.00;1.38;;;6.30;3.40;;;;;;5069511;28;20386;-74
2024/02/20 06:52:45;;;;;;;0.80;0.80;;;6.30;9.00;;;;;;5065541;28;20366;-76
2024/02/20 06:55:11;;;;;;;2.75;2.40;;;6.30;5.30;;;;;;5059430;28;20048;-74
2024/02/20 06:57:39;;;;;;;0.10;0.10;;;6.30;2.90;;;;;;5037954;28;20045;-74
2024/02/20 07:00:11;;;;;;;1.77;1.33;;;6.40;1.00;;;;;;5063066;28;20033;-75
2024/02/20 07:02:47;;;;;;;0.10;0.10;;;6.40;1.00;;;;;;5044475;28;20028;-74
2024/02/20 07:05:13;;;;;;;1.05;0.95;;;6.50;1.00;;;;;;5061510;28;20033;-74
2024/02/20 07:07:39;;;;;;;0.70;0.70;;;6.60;1.00;;;;;;5060323;28;20036;-73
2024/02/20 07:10:09;;;;;;;1.75;0.95;;;6.70;1.00;;;;;;5063425;28;20029;-73
2024/02/20 07:12:35;;;;;;;0.30;0.30;;;6.70;1.00;;;;;;5063798;28;20029;-73
2024/02/20 07:15:02;;;;;;;0.10;0.10;;;6.80;1.00;;;;;;5050095;28;20397;-73
2024/02/20 07:17:28;;;;;;;0.20;0.20;;;6.80;1.00;;;;;;5066420;28;20033;-74
2024/02/20 07:20:01;;;;;;;0.10;0.10;;;6.90;1.00;;;;;;5064498;28;20036;-74
2024/02/20 07:22:29;;;;;;;0.20;0.20;;;7.00;1.00;;;;;;5049524;28;20045;-74
2024/02/20 07:24:56;;;;;;;0.80;0.52;;;6.90;1.00;;;;;;5065206;28;20032;-74
2024/02/20 07:27:22;;;;;;;0.22;0.22;;;7.00;1.00;;;;;;5065370;28;20408;-74
2024/02/20 07:29:49;;;;;;;0.10;0.10;;;7.00;1.00;;;;;;5047346;28;20039;-74
2024/02/20 07:32:16;;;;;;;1.95;1.33;;;7.10;1.00;;;;;;5049940;28;20032;-74
2024/02/20 07:34:44;;;;;;;0.75;0.50;;;7.00;1.00;;;;;;5070427;28;20036;-74
2024/02/20 07:37:10;;;;;;;1.20;0.73;;;7.00;1.00;;;;;;5037838;28;20041;-74
2024/02/20 07:39:39;;;;;;;0.20;0.20;;;7.10;1.00;;;;;;5061487;28;20413;-76
2024/02/20 07:42:07;;;;;;;0.20;0.20;;;7.20;1.00;;;;;;5051457;28;20523;-74
2024/02/20 07:44:34;;;;;;;0.10;0.10;;;7.20;1.00;;;;;;5064307;28;20035;-74
2024/02/20 07:47:00;;;;;;;0.10;0.10;;;7.20;1.00;;;;;;5049612;28;20045;-74
2024/02/20 07:49:26;;;;;;;0.75;0.55;;;7.30;1.00;;;;;;5058990;28;20029;-74
2024/02/20 07:51:53;;;;;;;0.95;0.95;;;7.40;1.00;;;;;;5066545;28;20043;-73
2024/02/20 07:54:19;;;;;;;19.77;1.02;;;7.50;1.00;;;;;;5065846;28;20028;-74
2024/02/20 07:56:46;;;;;;;4.47;2.17;;;7.60;1.00;;;;;;5064736;28;20484;-74
2024/02/20 07:59:12;;;;;;;0.95;0.95;;;7.60;1.00;;;;;;5062533;28;20035;-74
2024/02/20 08:01:38;;;;;;;0.70;0.70;;;7.60;1.00;;;;;;5058184;28;20037;-76
2024/02/20 08:04:05;;;;;;;2.28;1.75;;;7.60;1.00;;;;;;5048885;28;20041;-76
2024/02/20 08:06:32;;;;;;;0.77;0.77;;;7.70;1.00;;;;;;5055416;28;20033;-74
2024/02/20 08:08:58;;;;;;;0.22;0.22;;;7.70;1.00;;;;;;5055071;28;20048;-73
2024/02/20 08:11:24;;;;;;;0.20;0.20;;;7.70;1.00;;;;;;5054754;28;20033;-73
2024/02/20 08:13:50;;;;;;;1.60;1.50;;;7.90;1.00;;;;;;5060522;28;20040;-73
2024/02/20 08:16:16;;;;;;;0.75;0.45;;;7.90;1.00;;;;;;5066388;28;20033;-73
2024/02/20 08:18:43;;;;;;;0.20;0.20;;;8.00;1.00;;;;;;5064717;28;20029;-72
2024/02/20 08:21:10;;;;;;;0.20;0.20;;;8.00;1.00;;;;;;5063942;28;20025;-72
2024/02/20 08:23:37;;;;;;;0.35;0.35;;;8.20;1.00;;;;;;5060975;28;20445;-72
2024/02/20 08:26:04;;;;;;;8.48;1.05;;;8.30;1.00;;;;;;5052812;28;20044;-73
2024/02/20 08:28:30;;;;;;;0.20;0.20;;;8.50;99.90;;;;;;5064512;28;20044;-72
2024/02/20 08:30:57;;;;;;;2.88;0.70;;;8.50;99.90;;;;;;5058730;28;20031;-73
2024/02/20 08:33:24;;;;;;;0.77;0.77;;;8.70;99.90;;;;;;5063424;28;20028;-72
2024/02/20 08:35:50;;;;;;;0.73;0.50;;;8.70;99.90;;;;;;5061740;28;20029;-72
2024/02/20 08:38:16;;;;;;;1.33;0.40;;;8.80;99.90;;;;;;5065353;28;20381;-72
2024/02/20 08:40:42;;;;;;;2.15;1.60;;;8.80;99.90;;;;;;5062557;28;20055;-72
2024/02/20 08:43:08;;;;;;;0.85;0.73;;;8.70;99.90;;;;;;5062483;28;20047;-72
2024/02/20 08:45:35;;;;;;;1.33;0.82;;;8.70;99.90;;;;;;5058280;28;20060;-72
2024/02/20 08:48:01;;;;;;;1.80;1.27;;;8.60;99.90;;;;;;5065690;28;20040;-72
2024/02/20 08:50:30;;;;;;;0.98;0.90;;;8.60;99.90;;;;;;5064116;28;20032;-72
2024/02/20 08:52:57;;;;;;;0.60;0.45;;;8.60;99.90;;;;;;5062928;28;20056;-72
2024/02/20 08:55:23;;;;;;;1.58;1.08;;;8.60;99.90;;;;;;5059288;28;20371;-73
2024/02/20 08:57:50;;;;;;;0.60;0.50;;;8.70;99.90;;;;;;5062597;28;20037;-71
2024/02/20 09:00:16;;;;;;;0.52;0.52;;;8.80;99.90;;;;;;5040698;28;20048;-72
2024/02/20 09:02:42;;;;;;;0.15;0.15;;;8.80;99.90;;;;;;5062235;28;20036;-73
2024/02/20 09:05:09;;;;;;;9.63;1.55;;;8.90;99.90;;;;;;5058552;28;20055;-72
2024/02/20 09:07:36;;;;;;;0.82;0.68;;;9.00;99.90;;;;;;5061717;28;20037;-73
2024/02/20 09:10:03;;;;;;;1.00;0.88;;;9.20;99.90;;;;;;5060807;28;20020;-73
2024/02/20 09:12:30;;;;;;;1.90;1.75;;;9.30;99.90;;;;;;5066167;28;20063;-73
2024/02/20 09:14:56;;;;;;;0.30;0.30;;;9.30;99.90;;;;;;5057781;28;20049;-72
2024/02/20 09:17:23;;;;;;;5.70;0.68;;;9.30;99.90;;;;;;5059980;28;20051;-72
2024/02/20 09:19:49;;;;;;;1.95;0.70;;;9.40;99.90;;;;;;5061161;28;20350;-72
2024/02/20 09:22:15;;;;;;;0.80;0.80;;;9.50;99.90;;;;;;5063912;28;20029;-72
2024/02/20 09:24:42;;;;;;;0.38;0.38;;;9.60;99.90;;;;;;5060190;28;20029;-73
2024/02/20 09:27:08;;;;;;;2.03;0.55;;;9.70;99.90;;;;;;5061210;28;20025;-72
2024/02/20 09:29:34;;;;;;;3.70;1.13;;;9.80;99.90;;;;;;5038598;28;20048;-72
2024/02/20 09:32:02;;;;;;;1.05;0.75;;;9.70;99.90;;;;;;5062820;28;20042;-72
2024/02/20 09:34:28;;;;;;;7.82;1.10;;;9.70;99.90;;;;;;5062981;28;20040;-73
2024/02/20 09:36:55;;;;;;;3.78;0.98;;;9.70;91.30;;;;;;5056057;28;20048;-73
2024/02/20 09:39:22;;;;;;;0.77;0.77;;;9.80;99.90;;;;;;5060982;28;20033;-73
2024/02/20 09:41:51;;;;;;;0.22;0.22;;;10.00;99.90;;;;;;5061850;28;20059;-73
2024/02/20 09:44:18;;;;;;;0.63;0.63;;;10.10;41.10;;;;;;5065063;28;20044;-73
2024/02/20 09:46:55;;;;;;;3.72;2.20;;;10.20;42.00;;;;;;5059327;28;20132;-73
2024/02/20 09:49:22;;;;;;;0.65;0.32;;;10.40;34.50;;;;;;5060487;28;20032;-73
2024/02/20 09:51:49;;;;;;;3.40;1.88;;;10.40;1.00;;;;;;5055377;28;20040;-73
2024/02/20 09:54:16;;;;;;;0.52;0.52;;;10.50;2.40;;;;;;5047410;28;20401;-73
2024/02/20 09:56:44;;;;;;;0.10;0.10;;;10.50;1.00;;;;;;5064293;28;20040;-73
2024/02/20 09:59:11;;;;;;;9.23;0.82;;;10.40;1.00;;;;;;5058961;28;20036;-73
2024/02/20 10:01:38;;;;;;;0.35;0.35;;;10.40;1.00;;;;;;5060186;28;20048;-73
2024/02/20 10:04:07;;;;;;;0.75;0.32;;;10.50;1.00;;;;;;5062811;28;20036;-72
2024/02/20 10:06:34;;;;;;;0.20;0.20;;;10.50;1.00;;;;;;5062406;28;20499;-73
2024/02/20 10:09:01;;;;;;;0.57;0.55;;;10.40;1.00;;;;;;5059981;28;20028;-73
2024/02/20 10:11:28;;;;;;;0.47;0.47;;;10.40;1.00;;;;;;5061377;28;20043;-73
2024/02/20 10:13:55;;;;;;;8.15;0.80;;;10.40;1.00;;;;;;5063059;28;20045;-72
2024/02/20 10:16:22;;;;;;;7.45;1.98;;;10.30;1.00;;;;;;5063944;28;20043;-72
2024/02/20 10:18:57;;;;;;;0.73;0.52;;;10.20;1.00;;;;;;5065621;28;20037;-73
2024/02/20 10:21:24;;;;;;;1.13;0.38;;;10.10;1.00;;;;;;5056422;28;20052;-73
2024/02/20 10:24:07;;;;;;;0.28;0.28;;;10.00;1.00;;;;;;5060081;28;20394;-73
2024/02/20 10:26:35;;;;;;;2.30;1.48;;;10.10;1.00;;;;;;5063079;28;20519;-72
2024/02/20 10:29:05;;;;;;;0.73;0.73;;;10.20;1.00;;;;;;5059068;28;20037;-72
2024/02/20 10:31:32;;;;;;;0.13;0.13;;;10.30;1.00;;;;;;5057715;28;20036;-72
2024/02/20 10:33:59;;;;;;;0.30;0.30;;;10.40;1.00;;;;;;5060945;28;20043;-72
2024/02/20 10:36:26;;;;;;;5.47;2.20;;;10.40;1.00;;;;;;5065134;28;20410;-72
2024/02/20 10:39:11;;;;;;;9.13;1.75;;;10.50;1.00;;;;;;5060333;28;20036;-72
2024/02/20 10:41:38;;;;;;;3.13;1.55;;;10.60;1.00;;;;;;5053160;28;20048;-72
2024/02/20 10:44:04;;;;;;;0.45;0.43;;;10.50;1.00;;;;;;5058738;28;20049;-73
2024/02/20 10:46:40;;;;;;;0.20;0.20;;;10.40;1.00;;;;;;5060882;28;20040;-72
2024/02/20 10:49:23;;;;;;;4.40;1.23;;;10.30;1.00;;;;;;5062862;28;20032;-73
2024/02/20 10:51:54;;;;;;;1.52;0.20;;;10.10;1.00;;;;;;5055926;28;20378;-73
2024/02/20 10:54:21;;;;;;;0.40;0.40;;;10.10;1.00;;;;;;5047763;28;20049;-72
2024/02/20 10:56:48;;;;;;;0.10;0.10;;;10.00;1.00;;;;;;5062060;28;20044;-73
2024/02/20 10:59:18;;;;;;;1.38;1.27;;;10.00;1.00;;;;;;5063634;28;20024;-72
2024/02/20 11:01:44;;;;;;;5.93;1.75;;;10.00;1.00;;;;;;5057816;28;20029;-72
2024/02/20 11:04:11;;;;;;;0.10;0.10;;;10.10;1.00;;;;;;5056699;28;20067;-73
2024/02/20 11:06:38;;;;;;;0.35;0.35;;;10.10;1.00;;;;;;5062479;28;20297;-72
2024/02/20 11:09:09;;;;;;;6.18;1.17;;;10.20;1.00;;;;;;5060766;28;20380;-72
2024/02/20 11:11:36;;;;;;;0.52;0.52;;;10.30;1.00;;;;;;5066510;28;20032;-73
2024/02/20 11:14:02;;;;;;;0.60;0.55;;;10.50;1.00;;;;;;5065634;28;20049;-73
2024/02/20 11:16:37;;;;;;;0.20;0.20;;;10.60;1.00;;;;;;5061908;28;20029;-73
2024/02/20 11:19:04;;;;;;;0.43;0.30;;;10.60;1.00;;;;;;5065137;28;20029;-73
2024/02/20 11:21:32;;;;;;;0.10;0.10;;;10.50;1.00;;;;;;5066471;28;20352;-72
2024/02/20 11:24:11;;;;;;;0.40;0.40;;;10.40;1.00;;;;;;5056765;28;20053;-73
2024/02/20 11:26:44;;;;;;;1.65;1.10;;;10.40;1.00;;;;;;5057745;28;20036;-73
2024/02/20 11:29:11;;;;;;;1.45;0.77;;;10.60;1.00;;;;;;5069691;28;20028;-73
2024/02/20 11:31:37;;;;;;;4.57;0.90;;;10.90;1.00;;;;;;5049592;28;20032;-73
2024/02/20 11:34:15;;;;;;;3.42;0.75;;;10.90;99.90;;;;;;5069395;28;20040;-72
2024/02/20 11:36:44;;;;;;;0.95;0.77;;;11.00;99.90;;;;;;5064621;28;20033;-73
2024/02/20 11:39:14;;;;;;;1.42;1.33;;;11.30;99.90;;;;;;5066626;28;20201;-73
2024/02/20 11:41:41;;;;;;;0.10;0.10;;;11.70;99.90;;;;;;5069949;28;20036;-73
2024/02/20 11:44:07;;;;;;;0.93;0.85;;;11.80;99.90;;;;;;5067617;28;20129;-72
2024/02/20 11:46:34;;;;;;;1.85;0.63;;;11.70;99.90;;;;;;5058141;28;20028;-73
2024/02/20 11:49:01;;;;;;;0.30;0.30;;;11.50;99.90;;;;;;5063634;28;20036;-72
2024/02/20 11:51:27;;;;;;;0.10;0.10;;;11.30;99.90;;;;;;5066943;28;20036;-72
2024/02/20 11:54:06;;;;;;;0.15;0.15;;;11.20;99.90;;;;;;5064705;28;20032;-75
2024/02/20 11:56:33;;;;;;;0.55;0.38;;;11.20;99.90;;;;;;5057892;28;20409;-72
2024/02/20 11:59:00;;;;;;;0.30;0.30;;;11.20;99.90;;;;;;5058876;28;20032;-72
2024/02/20 12:01:30;;;;;;;0.57;0.57;;;11.10;99.90;;;;;;5064713;28;20035;-73
2024/02/20 12:04:04;;;;;;;0.75;0.75;;;11.10;99.90;;;;;;5064027;28;20045;-74
2024/02/20 12:06:32;;;;;;;3.03;1.73;;;11.20;99.90;;;;;;5064048;28;20036;-73
2024/02/20 12:08:58;;;;;;;0.35;0.35;;;11.30;99.90;;;;;;5048392;28;20044;-73
2024/02/20 12:11:29;;;;;;;1.58;1.30;;;11.50;99.90;;;;;;5067050;28;20029;-73
2024/02/20 12:14:05;;;;;;;0.20;0.20;;;11.70;99.90;;;;;;5064337;28;20056;-73
2024/02/20 12:16:36;;;;;;;5.22;1.13;;;11.90;99.90;;;;;;5066696;28;20029;-72
2024/02/20 12:19:03;;;;;;;1.55;1.00;;;11.90;99.90;;;;;;5047845;28;20036;-72
2024/02/20 12:21:31;;;;;;;0.30;0.30;;;11.90;99.90;;;;;;5068303;28;20028;-73
2024/02/20 12:23:59;;;;;;;0.20;0.20;;;11.80;99.90;;;;;;5064756;28;20438;-72
2024/02/20 12:26:26;;;;;;;2.03;1.63;;;11.80;99.90;;;;;;5064403;28;20039;-71
2024/02/20 12:28:54;;;;;;;0.70;0.68;;;11.70;99.90;;;;;;5058638;28;20032;-72
2024/02/20 12:31:26;;;;;;;0.20;0.20;;;11.70;99.90;;;;;;5059773;28;20045;-72
2024/02/20 12:33:53;;;;;;;0.30;0.30;;;11.70;99.90;;;;;;5064707;28;20382;-74
2024/02/20 12:36:20;;;;;;;0.60;0.60;;;11.80;99.90;;;;;;5065488;28;20036;-73
2024/02/20 12:38:46;;;;;;;1.13;0.28;;;11.80;99.90;;;;;;5062485;28;20041;-72
2024/02/20 12:41:12;;;;;;;0.30;0.30;;;11.90;99.90;;;;;;5058356;28;20041;-71
2024/02/20 12:43:39;;;;;;;0.30;0.30;;;12.00;99.90;;;;;;5065598;28;20397;-72
2024/02/20 12:46:05;;;;;;;4.05;0.38;;;11.90;99.90;;;;;;5062567;28;20036;-73
2024/02/20 12:48:32;;;;;;;3.70;1.63;;;12.00;99.90;;;;;;5063698;28;20028;-73
2024/02/20 12:51:01;;;;;;;0.20;0.20;;;12.10;99.90;;;;;;5064432;28;20500;-73
2024/02/20 12:53:27;;;;;;;0.55;0.55;;;11.90;99.90;;;;;;5047361;28;20046;-73
2024/02/20 12:55:54;;;;;;;3.63;1.27;;;11.90;99.90;;;;;;5065264;28;20039;-73
2024/02/20 12:58:20;;;;;;;0.57;0.57;;;11.80;99.90;;;;;;5064543;28;20036;-73